createdAt,value
2022-10-11T00:00:01.845Z,13.00
2022-10-11T00:05:57.503Z,12.27
2022-10-11T00:11:49.904Z,13.05
2022-10-11T00:17:41.790Z,15.25
2022-10-11T00:23:35.551Z,10.37
2022-10-11T00:29:28.151Z,12.02
2022-10-11T00:35:20.041Z,12.82
2022-10-11T00:41:12.901Z,11.80
2022-10-11T00:47:10.643Z,17.23
2022-10-11T00:53:08.311Z,14.05
2022-10-11T00:59:02.219Z,12.20
2022-10-11T01:11:04.461Z,12.45
2022-10-11T01:17:00.382Z,19.88
2022-10-11T01:23:18.351Z,11.40
2022-10-11T01:29:13.249Z,10.27
2022-10-11T01:35:09.081Z,11.65
2022-10-11T01:41:12.495Z,12.02
2022-10-11T01:52:58.774Z,11.93
2022-10-11T01:59:02.843Z,12.43
2022-10-11T02:05:03.489Z,13.73
2022-10-11T02:11:01.333Z,16.50
2022-10-11T02:16:58.101Z,15.07
2022-10-11T02:22:51.954Z,20.17
2022-10-11T02:28:45.233Z,10.45
2022-10-11T02:34:44.451Z,11.33
2022-10-11T02:40:38.353Z,12.27
2022-10-11T02:52:25.078Z,11.88
2022-10-11T02:58:17.442Z,10.27
2022-10-11T03:04:09.624Z,12.52
2022-10-11T03:10:01.495Z,12.07
2022-10-11T03:16:02.851Z,8.30
2022-10-11T03:21:59.429Z,11.93
2022-10-11T03:27:51.683Z,13.55
2022-10-11T03:33:43.485Z,10.65
2022-10-11T03:39:35.726Z,8.93
2022-10-11T03:45:27.783Z,11.40
2022-10-11T03:51:20.473Z,12.27
2022-10-11T03:57:12.562Z,10.27
2022-10-11T04:03:04.722Z,13.70
2022-10-11T04:08:56.945Z,8.75
2022-10-11T04:14:49.271Z,11.25
2022-10-11T04:20:41.715Z,13.43
2022-10-11T04:26:33.703Z,10.00
2022-10-11T04:32:25.744Z,12.93
2022-10-11T04:38:17.789Z,10.93
2022-10-11T04:44:09.804Z,15.85
2022-10-11T04:50:01.414Z,12.88
2022-10-11T04:56:01.635Z,9.32
2022-10-11T05:01:53.928Z,12.18
2022-10-11T05:07:45.926Z,16.45
2022-10-11T05:13:38.137Z,10.43
2022-10-11T05:19:30.885Z,14.10
2022-10-11T05:25:22.886Z,11.52
2022-10-11T05:31:15.586Z,13.38
2022-10-11T05:37:07.994Z,11.77
2022-10-11T05:43:00.125Z,11.00
2022-10-11T05:48:53.047Z,11.57
2022-10-11T05:54:45.014Z,10.10
2022-10-11T06:00:38.244Z,10.80
2022-10-11T06:06:32.185Z,10.02
2022-10-11T06:12:24.839Z,12.20
2022-10-11T06:18:16.955Z,8.15
2022-10-11T06:24:09.656Z,8.57
2022-10-11T06:30:01.515Z,7.07
2022-10-11T06:36:04.018Z,6.13
2022-10-11T06:41:57.036Z,7.07
2022-10-11T06:47:49.213Z,6.13
2022-10-11T06:53:41.249Z,5.00
2022-10-11T06:59:33.166Z,3.40
2022-10-11T07:05:25.231Z,5.45
2022-10-11T07:11:18.744Z,6.18
2022-10-11T07:17:10.762Z,6.78
2022-10-11T07:23:03.080Z,3.28
2022-10-11T07:28:55.358Z,4.40
2022-10-11T07:34:47.864Z,4.37
2022-10-11T07:40:44.343Z,2.95
2022-10-11T07:46:36.354Z,5.05
2022-10-11T07:52:28.204Z,4.80
2022-10-11T07:58:20.273Z,4.55
2022-10-11T08:04:11.965Z,3.90
2022-10-11T08:10:05.602Z,3.03
2022-10-11T08:15:58.439Z,5.05
2022-10-11T08:21:50.335Z,5.45
2022-10-11T08:27:42.264Z,4.65
2022-10-11T08:33:34.121Z,5.75
2022-10-11T08:39:26.564Z,4.27
2022-10-11T08:45:27.284Z,1.60
2022-10-11T08:51:27.165Z,8.07
2022-10-11T08:57:20.805Z,3.50
2022-10-11T09:03:16.203Z,2.20
2022-10-11T09:09:29.314Z,3.72
2022-10-11T09:15:26.964Z,1.80
2022-10-11T09:21:31.345Z,5.05
2022-10-11T09:27:57.353Z,2.85
2022-10-11T09:33:47.626Z,3.42
2022-10-11T09:39:46.034Z,2.65
2022-10-11T09:45:48.262Z,2.90
2022-10-11T09:51:43.685Z,2.72
2022-10-11T09:57:39.809Z,4.72
2022-10-11T10:03:33.964Z,2.38
2022-10-11T10:09:30.646Z,2.17
2022-10-11T10:15:22.401Z,1.75
2022-10-11T10:21:15.462Z,1.50
2022-10-11T10:27:10.666Z,2.33
2022-10-11T10:33:07.293Z,2.30
2022-10-11T10:39:03.164Z,1.40
2022-10-11T10:44:57.203Z,1.80
2022-10-11T10:50:58.434Z,5.85
2022-10-11T10:56:56.302Z,8.10
2022-10-11T11:03:06.791Z,2.30
2022-10-11T11:09:21.917Z,6.97
2022-10-11T11:15:18.333Z,3.08
2022-10-11T11:21:27.233Z,1.30
2022-10-11T11:27:19.752Z,2.17
2022-10-11T11:33:17.442Z,3.88
2022-10-11T11:39:39.147Z,2.40
2022-10-11T11:45:35.222Z,2.50
2022-10-11T11:51:31.500Z,2.03
2022-10-11T11:57:28.896Z,2.35
2022-10-11T12:03:25.424Z,4.18
2022-10-11T12:09:17.965Z,2.10
2022-10-11T12:15:09.950Z,0.98
2022-10-11T12:21:06.374Z,1.17
2022-10-11T12:27:01.464Z,2.75
2022-10-11T12:33:03.063Z,2.90
2022-10-11T12:39:33.321Z,1.90
2022-10-11T12:45:30.465Z,2.15
2022-10-11T12:51:36.835Z,2.80
2022-10-11T12:57:47.684Z,2.58
2022-10-11T13:03:41.323Z,1.33
2022-10-11T13:09:36.085Z,0.80
2022-10-11T13:15:28.792Z,4.90
2022-10-11T13:21:24.136Z,1.02
2022-10-11T13:27:18.619Z,2.67
2022-10-11T13:33:19.357Z,1.67
2022-10-11T13:39:31.086Z,1.35
2022-10-11T13:45:25.009Z,1.70
2022-10-11T13:51:32.710Z,3.53
2022-10-11T13:57:33.578Z,2.50
2022-10-11T14:03:36.440Z,4.50
2022-10-11T14:09:37.001Z,5.97
2022-10-11T14:15:31.101Z,5.20
2022-10-11T14:21:28.505Z,4.47
2022-10-11T14:27:22.755Z,3.13
2022-10-11T14:33:15.366Z,1.98
2022-10-11T14:39:11.924Z,0.98
2022-10-11T14:45:04.834Z,3.55
2022-10-11T14:50:59.367Z,1.45
2022-10-11T14:56:52.685Z,2.55
2022-10-11T15:02:46.713Z,10.25
2022-10-11T15:08:40.524Z,7.07
2022-10-11T15:14:32.827Z,1.58
2022-10-11T15:20:30.087Z,3.88
2022-10-11T15:26:24.878Z,4.22
2022-10-11T15:32:17.703Z,4.15
2022-10-11T15:38:16.334Z,8.43
2022-10-11T15:44:08.551Z,10.68
2022-10-11T15:50:00.414Z,7.45
2022-10-11T15:55:53.538Z,5.43
2022-10-11T16:01:46.925Z,5.13
2022-10-11T16:07:39.723Z,4.78
2022-10-11T16:13:31.113Z,8.05
2022-10-11T16:19:23.754Z,3.80
2022-10-11T16:25:15.373Z,2.42
2022-10-11T16:31:08.557Z,4.93
2022-10-11T16:37:00.755Z,16.33
2022-10-11T16:42:52.773Z,22.40
2022-10-11T16:48:44.664Z,11.38
2022-10-11T16:54:40.656Z,8.13
2022-10-11T17:00:32.910Z,9.02
2022-10-11T17:06:27.134Z,17.02
2022-10-11T17:12:21.655Z,13.87
2022-10-11T17:18:13.625Z,26.88
2022-10-11T17:24:05.952Z,15.20
2022-10-11T17:29:57.434Z,22.10
2022-10-11T17:35:49.890Z,13.43
2022-10-11T17:41:42.183Z,11.93
2022-10-11T17:47:34.903Z,16.97
2022-10-11T17:53:26.983Z,9.07
2022-10-11T17:59:21.534Z,6.45
2022-10-11T18:05:14.912Z,8.95
2022-10-11T18:11:13.946Z,16.40
2022-10-11T18:17:06.177Z,10.82
2022-10-11T18:22:59.092Z,8.23
2022-10-11T18:28:52.181Z,11.05
2022-10-11T18:40:37.965Z,31.63
2022-10-11T18:46:30.232Z,65.13
2022-10-11T18:52:22.993Z,68.75
2022-10-11T18:58:15.338Z,10.65
2022-10-11T19:04:09.652Z,21.58
2022-10-11T19:10:03.022Z,11.85
2022-10-11T19:15:55.095Z,11.10
2022-10-11T19:21:48.917Z,12.70
2022-10-11T19:27:41.162Z,16.52
2022-10-11T19:33:33.696Z,13.90
2022-10-11T19:39:26.294Z,19.20
2022-10-11T19:45:17.882Z,21.70
2022-10-11T19:51:11.992Z,14.23
2022-10-11T19:57:05.025Z,17.38
2022-10-11T20:02:58.213Z,13.82
2022-10-11T20:09:10.402Z,17.90
2022-10-11T20:15:03.521Z,18.02
2022-10-11T20:21:00.051Z,21.30
2022-10-11T20:26:52.281Z,39.38
2022-10-11T20:32:45.399Z,20.23
2022-10-11T20:38:39.270Z,23.95
2022-10-11T20:44:30.854Z,21.10
2022-10-11T20:50:23.366Z,28.95
2022-10-11T20:56:16.303Z,26.60
2022-10-11T21:02:09.798Z,30.98
2022-10-11T21:08:02.494Z,25.25
2022-10-11T21:13:54.943Z,24.95
2022-10-11T21:19:46.902Z,29.98
2022-10-11T21:25:39.865Z,21.55
2022-10-11T21:31:34.386Z,22.80
2022-10-11T21:37:26.431Z,25.35
2022-10-11T21:43:20.342Z,25.23
2022-10-11T21:49:12.357Z,25.30
2022-10-11T21:55:04.533Z,30.88
2022-10-11T22:00:56.831Z,31.58
2022-10-11T22:06:49.598Z,28.77
2022-10-11T22:12:41.609Z,31.40
2022-10-11T22:18:33.914Z,29.45
2022-10-11T22:24:27.900Z,38.92
2022-10-11T22:30:20.215Z,27.95
2022-10-11T22:36:13.453Z,23.98
2022-10-11T22:47:58.573Z,37.65
2022-10-11T22:53:50.593Z,37.58
2022-10-11T22:59:42.302Z,40.25
2022-10-11T23:05:35.713Z,39.28
2022-10-11T23:11:27.732Z,33.95
2022-10-11T23:17:20.178Z,36.75
2022-10-11T23:23:12.459Z,37.65
2022-10-11T23:29:04.672Z,41.35
2022-10-11T23:34:56.550Z,38.78
2022-10-11T23:40:48.750Z,33.50
2022-10-11T23:46:41.633Z,28.53
2022-10-11T23:52:33.491Z,40.60
2022-10-11T23:58:25.767Z,28.95
